Time;durP1;ratioP1;P1;durP2;ratioP2;P2;SDS_P1;SDS_P2;PMS_P1;PMS_P2;Temp;Humidity;BMP_temperature;BMP_pressure;BME280_temperature;BME280_humidity;BME280_pressure;Samples;Min_cycle;Max_cycle;Signal;HPM_P1;HPM_P2
2023/05/24 00:00:22;;;;;;;21.13;4.72;;;17.80;65.00;;;;;;3970552;29;20062;-50
2023/05/24 00:03:05;;;;;;;;;;;17.80;65.00;;;;;;3971454;29;20072;-49
2023/05/24 00:05:46;;;;;;;14.50;3.88;;;17.80;65.10;;;;;;3971055;29;19936;-50
2023/05/24 00:08:27;;;;;;;16.05;4.70;;;17.80;65.90;;;;;;3970576;29;20523;-51
2023/05/24 00:11:09;;;;;;;14.88;3.67;;;17.80;66.60;;;;;;3971285;29;20058;-50
2023/05/24 00:13:50;;;;;;;14.35;4.43;;;17.80;65.50;;;;;;3971108;29;20062;-49
2023/05/24 00:16:31;;;;;;;18.00;4.68;;;17.80;65.60;;;;;;3970995;29;20070;-48
2023/05/24 00:19:17;;;;;;;14.10;3.95;;;17.80;65.40;;;;;;3970872;29;20053;-49
2023/05/24 00:21:58;;;;;;;18.80;5.18;;;17.80;65.50;;;;;;3970778;29;20453;-49
2023/05/24 00:24:39;;;;;;;13.05;4.22;;;17.80;65.70;;;;;;3970567;29;20097;-48
2023/05/24 00:27:20;;;;;;;11.05;3.55;;;17.80;65.90;;;;;;3970164;29;20069;-50
2023/05/24 00:30:01;;;;;;;20.42;4.70;;;17.70;65.80;;;;;;3970529;29;20123;-50
2023/05/24 00:32:44;;;;;;;17.92;4.95;;;17.70;65.90;;;;;;3960084;29;20062;-49
2023/05/24 00:35:26;;;;;;;14.40;4.25;;;17.70;66.00;;;;;;3959520;29;20419;-49
2023/05/24 00:38:07;;;;;;;21.90;4.47;;;17.70;65.90;;;;;;3958941;29;20057;-48
2023/05/24 00:40:49;;;;;;;16.30;4.40;;;17.70;66.00;;;;;;3958695;29;20055;-51
2023/05/24 00:43:29;;;;;;;16.65;4.40;;;17.70;66.10;;;;;;3958216;29;20199;-50
2023/05/24 00:46:14;;;;;;;;;;;17.70;66.30;;;;;;3958712;29;20062;-50
2023/05/24 00:48:56;;;;;;;13.68;4.65;;;17.70;66.40;;;;;;3967190;29;20021;-50
2023/05/24 00:51:38;;;;;;;12.95;4.20;;;17.70;66.90;;;;;;3961410;29;20764;-51
2023/05/24 00:54:21;;;;;;;18.42;4.53;;;17.70;66.60;;;;;;3961903;29;20058;-51
2023/05/24 00:57:04;;;;;;;15.70;4.13;;;17.70;66.50;;;;;;3961740;29;20123;-55
2023/05/24 00:59:46;;;;;;;17.83;4.32;;;17.70;66.40;;;;;;3961913;29;20058;-51
2023/05/24 01:02:26;;;;;;;17.48;4.45;;;17.70;66.30;;;;;;3972180;29;20115;-51
2023/05/24 01:05:12;;;;;;;14.18;4.50;;;17.70;67.10;;;;;;3972955;29;20054;-51
2023/05/24 01:08:04;;;;;;;16.35;4.55;;;17.70;66.30;;;;;;3972495;29;20069;-53
2023/05/24 01:10:53;;;;;;;15.93;4.07;;;17.70;66.00;;;;;;3946552;29;20054;-51
2023/05/24 01:13:46;;;;;;;13.43;4.25;;;17.70;67.30;;;;;;3957934;29;20066;-53
2023/05/24 01:16:45;;;;;;;17.70;4.28;;;17.60;66.40;;;;;;3957484;29;20070;-51
2023/05/24 01:19:42;;;;;;;14.57;3.25;;;17.60;66.40;;;;;;3969211;29;20120;-54
2023/05/24 01:22:50;;;;;;;15.15;4.30;;;17.60;66.40;;;;;;3961315;29;20058;-53
2023/05/24 01:25:46;;;;;;;19.48;4.18;;;17.60;66.20;;;;;;3961314;29;20127;-52
2023/05/24 01:28:31;;;;;;;12.27;3.92;;;17.60;66.50;;;;;;3957067;29;20423;-50
2023/05/24 01:31:14;;;;;;;11.55;3.40;;;17.60;66.70;;;;;;3946764;30;20716;-52
2023/05/24 01:33:55;;;;;;;17.92;4.40;;;17.60;66.60;;;;;;3957847;29;20403;-50
2023/05/24 01:36:36;;;;;;;19.92;4.53;;;17.60;66.60;;;;;;3957643;29;20085;-51
2023/05/24 01:39:18;;;;;;;12.20;4.18;;;17.60;66.60;;;;;;3957409;29;20412;-51
2023/05/24 01:42:07;;;;;;;17.75;4.53;;;17.60;66.60;;;;;;3956758;29;20416;-52
2023/05/24 01:44:57;;;;;;;12.70;4.00;;;17.60;66.20;;;;;;3971350;29;20187;-51
2023/05/24 01:47:48;;;;;;;14.20;4.30;;;17.60;67.10;;;;;;3960836;29;20526;-54
2023/05/24 01:50:34;;;;;;;16.95;3.90;;;17.60;66.40;;;;;;3960278;29;20069;-50
2023/05/24 01:53:19;;;;;;;21.83;4.07;;;17.60;66.60;;;;;;3971937;29;20529;-52
2023/05/24 01:56:02;;;;;;;12.82;3.35;;;17.60;66.80;;;;;;3961033;29;20058;-52
2023/05/24 01:58:46;;;;;;;12.75;3.85;;;17.60;66.80;;;;;;3971573;29;20141;-50
2023/05/24 02:01:29;;;;;;;14.43;4.22;;;17.60;66.80;;;;;;3960771;29;20091;-51
2023/05/24 02:04:10;;;;;;;11.82;3.42;;;17.60;66.90;;;;;;3972134;29;20423;-54
2023/05/24 02:06:51;;;;;;;14.15;3.75;;;17.60;67.10;;;;;;3972341;29;20081;-51
2023/05/24 02:09:32;;;;;;;11.93;3.97;;;17.60;67.10;;;;;;3971981;29;20472;-51
2023/05/24 02:12:13;;;;;;;;;;;17.60;67.90;;;;;;3960998;29;20058;-51
2023/05/24 02:14:56;;;;;;;15.18;4.22;;;17.60;67.20;;;;;;3971586;29;19936;-51
2023/05/24 02:17:39;;;;;;;16.58;4.25;;;17.60;68.70;;;;;;3960294;29;20115;-50
2023/05/24 02:20:21;;;;;;;13.55;4.15;;;17.50;67.40;;;;;;3960646;29;20071;-51
2023/05/24 02:23:02;;;;;;;15.85;4.47;;;17.60;67.30;;;;;;3971486;29;20100;-51
2023/05/24 02:25:43;;;;;;;;;;;17.50;67.20;;;;;;3961120;29;20400;-51
2023/05/24 02:28:24;;;;;;;13.23;4.35;;;17.50;67.20;;;;;;3971156;29;19936;-50
2023/05/24 02:31:05;;;;;;;13.80;3.35;;;17.50;68.90;;;;;;3960516;29;20058;-50
2023/05/24 02:33:48;;;;;;;16.35;3.55;;;17.50;68.40;;;;;;3971193;29;20061;-51
2023/05/24 02:36:31;;;;;;;15.95;3.72;;;17.50;68.30;;;;;;3971408;29;20057;-52
2023/05/24 02:39:12;;;;;;;20.63;4.80;;;17.50;67.60;;;;;;3971454;29;20053;-50
2023/05/24 02:41:53;;;;;;;14.95;4.22;;;17.50;67.70;;;;;;3965254;29;20055;-52
2023/05/24 02:44:34;;;;;;;15.02;3.85;;;17.50;67.70;;;;;;3966368;29;20522;-50
2023/05/24 02:47:15;;;;;;;15.68;3.97;;;17.50;67.70;;;;;;3968037;29;20116;-51
2023/05/24 02:49:58;;;;;;;12.10;4.15;;;17.50;67.70;;;;;;3960210;29;20053;-52
2023/05/24 02:52:38;;;;;;;15.73;4.15;;;17.50;67.70;;;;;;3945388;30;20089;-51
2023/05/24 02:55:20;;;;;;;9.55;3.45;;;17.50;67.80;;;;;;3955752;29;20054;-52
2023/05/24 02:58:01;;;;;;;13.88;3.63;;;17.50;68.00;;;;;;3955897;29;20059;-51
2023/05/24 03:00:43;;;;;;;14.93;4.07;;;17.50;68.00;;;;;;3962930;29;20199;-51
2023/05/24 03:03:24;;;;;;;13.63;3.92;;;17.50;67.90;;;;;;3969799;29;20062;-53
2023/05/24 03:06:07;;;;;;;;;;;17.50;67.90;;;;;;3947067;29;20073;-51
2023/05/24 03:08:48;;;;;;;9.75;3.45;;;17.50;68.00;;;;;;3970362;29;19932;-50
2023/05/24 03:11:30;;;;;;;14.10;4.15;;;17.40;68.60;;;;;;3960058;29;20085;-51
2023/05/24 03:14:11;;;;;;;14.43;3.80;;;17.40;68.30;;;;;;3971159;29;20066;-51
2023/05/24 03:16:55;;;;;;;11.40;3.67;;;17.50;68.10;;;;;;3960145;29;20081;-53
2023/05/24 03:19:36;;;;;;;15.50;3.67;;;17.40;68.00;;;;;;3971042;29;20064;-51
2023/05/24 03:22:18;;;;;;;13.98;3.08;;;17.40;68.10;;;;;;3959601;29;20099;-51
2023/05/24 03:24:59;;;;;;;12.43;3.45;;;17.40;68.00;;;;;;3959432;29;20058;-51
2023/05/24 03:27:41;;;;;;;11.75;3.40;;;17.40;68.00;;;;;;3971054;29;20130;-50
2023/05/24 03:30:22;;;;;;;13.27;3.88;;;17.40;68.10;;;;;;3970585;29;20173;-50
2023/05/24 03:33:08;;;;;;;17.00;3.58;;;17.40;68.10;;;;;;3949754;29;20058;-50
2023/05/24 03:35:49;;;;;;;13.48;4.55;;;17.40;68.10;;;;;;3970238;29;20053;-53
2023/05/24 03:38:32;;;;;;;15.60;4.10;;;17.40;68.30;;;;;;3944375;29;20083;-52
2023/05/24 03:41:13;;;;;;;14.48;4.13;;;17.40;68.00;;;;;;3954747;29;20054;-54
2023/05/24 03:43:55;;;;;;;16.30;4.32;;;17.40;68.20;;;;;;3958971;29;20138;-51
2023/05/24 03:46:36;;;;;;;14.40;3.97;;;17.40;69.00;;;;;;3970073;29;20564;-54
2023/05/24 03:49:18;;;;;;;15.93;3.47;;;17.40;68.10;;;;;;3959773;29;20050;-51
2023/05/24 03:51:59;;;;;;;9.13;3.60;;;17.40;68.00;;;;;;3969764;29;20072;-51
2023/05/24 03:54:42;;;;;;;13.93;3.63;;;17.40;68.10;;;;;;3956394;29;20070;-51
2023/05/24 03:57:23;;;;;;;14.07;4.18;;;17.40;69.10;;;;;;3955508;29;20415;-51
2023/05/24 04:00:06;;;;;;;;;;;17.30;68.10;;;;;;3955690;29;20415;-51
2023/05/24 04:02:54;;;;;;;17.13;3.80;;;17.40;68.40;;;;;;3966757;29;20277;-51
2023/05/24 04:05:35;;;;;;;18.58;3.63;;;17.30;69.00;;;;;;3959817;29;20061;-49
2023/05/24 04:08:17;;;;;;;14.65;4.03;;;17.30;69.00;;;;;;3959251;29;20598;-51
2023/05/24 04:11:00;;;;;;;17.20;4.28;;;17.30;68.60;;;;;;3955809;29;20167;-50
2023/05/24 04:13:41;;;;;;;20.75;3.88;;;17.40;68.40;;;;;;3967149;29;20054;-53
2023/05/24 04:16:22;;;;;;;15.55;3.72;;;17.30;68.30;;;;;;3973834;29;20204;-52
2023/05/24 04:19:04;;;;;;;15.70;4.25;;;17.30;68.30;;;;;;3972973;29;20058;-52
2023/05/24 04:21:45;;;;;;;17.87;4.13;;;17.30;68.40;;;;;;3973607;29;20510;-52
2023/05/24 04:24:26;;;;;;;14.13;3.47;;;17.30;68.40;;;;;;3962613;29;20216;-50
2023/05/24 04:27:09;;;;;;;14.95;4.07;;;17.30;68.60;;;;;;3973964;29;20054;-51
2023/05/24 04:29:52;;;;;;;11.55;3.60;;;17.30;68.50;;;;;;3974020;29;20107;-51
2023/05/24 04:32:33;;;;;;;11.88;3.90;;;17.30;68.50;;;;;;3973280;29;20415;-51
2023/05/24 04:35:14;;;;;;;23.02;5.05;;;17.30;68.60;;;;;;3962252;29;20585;-50
2023/05/24 04:37:56;;;;;;;22.10;4.45;;;17.30;68.10;;;;;;3973358;29;20723;-53
2023/05/24 04:40:37;;;;;;;15.27;3.80;;;17.30;68.20;;;;;;3973397;29;20422;-54
2023/05/24 04:43:19;;;;;;;13.70;3.90;;;17.30;68.00;;;;;;3958224;29;20104;-52
2023/05/24 04:46:00;;;;;;;17.52;4.10;;;17.30;68.10;;;;;;3957408;29;20135;-55
2023/05/24 04:48:44;;;;;;;11.63;3.95;;;17.30;68.00;;;;;;3958153;29;20050;-53
2023/05/24 04:51:25;;;;;;;13.38;3.72;;;17.30;68.00;;;;;;3961993;29;20098;-55
2023/05/24 04:54:07;;;;;;;18.77;4.80;;;17.30;68.40;;;;;;3967684;29;20522;-56
2023/05/24 04:56:48;;;;;;;12.82;3.88;;;17.30;68.20;;;;;;3973015;29;20415;-55
2023/05/24 04:59:31;;;;;;;15.10;3.75;;;17.30;68.40;;;;;;3973281;29;20073;-56
2023/05/24 05:02:12;;;;;;;13.02;3.85;;;17.30;68.20;;;;;;3972383;29;20054;-57
2023/05/24 05:04:53;;;;;;;13.73;4.55;;;17.40;68.40;;;;;;3967706;29;20054;-56
2023/05/24 05:07:34;;;;;;;11.45;3.83;;;17.30;68.40;;;;;;3958076;29;20062;-56
2023/05/24 05:10:15;;;;;;;16.23;3.78;;;17.30;67.30;;;;;;3967070;29;20058;-55
2023/05/24 05:12:56;;;;;;;24.50;4.35;;;17.30;67.00;;;;;;3946663;29;20050;-55
2023/05/24 05:15:39;;;;;;;13.00;3.90;;;17.30;67.80;;;;;;3957675;30;20103;-55
2023/05/24 05:18:22;;;;;;;14.05;3.88;;;17.30;68.10;;;;;;3958228;29;20082;-55
2023/05/24 05:21:03;;;;;;;14.27;4.20;;;17.30;68.10;;;;;;3962791;29;20419;-56
2023/05/24 05:23:45;;;;;;;20.00;3.80;;;17.30;66.80;;;;;;3971778;29;20077;-57
2023/05/24 05:26:26;;;;;;;;;;;17.40;65.60;;;;;;3971725;29;20069;-52
2023/05/24 05:29:07;;;;;;;16.38;4.20;;;17.40;66.50;;;;;;3972340;29;20366;-54
2023/05/24 05:31:49;;;;;;;14.80;3.65;;;17.40;66.90;;;;;;3972262;29;20101;-52
2023/05/24 05:34:31;;;;;;;11.90;3.83;;;17.40;66.00;;;;;;3972067;29;20061;-55
2023/05/24 05:37:13;;;;;;;12.75;3.92;;;17.40;65.60;;;;;;3971777;29;20054;-53
2023/05/24 05:39:53;;;;;;;14.93;4.18;;;17.50;66.90;;;;;;3972266;29;20131;-51
2023/05/24 05:42:34;;;;;;;22.25;4.35;;;17.60;66.10;;;;;;3972179;29;20058;-56
2023/05/24 05:45:15;;;;;;;14.57;3.83;;;17.60;65.60;;;;;;3971816;29;20057;-55
2023/05/24 05:47:58;;;;;;;23.67;4.35;;;17.60;66.00;;;;;;3957144;29;20066;-56
2023/05/24 05:50:39;;;;;;;13.93;4.30;;;17.50;66.60;;;;;;3957027;29;20054;-58
2023/05/24 05:53:21;;;;;;;14.68;3.50;;;17.50;67.80;;;;;;3957474;29;20139;-55
2023/05/24 05:56:01;;;;;;;11.83;3.40;;;17.50;66.90;;;;;;3968617;29;20066;-53
2023/05/24 05:58:43;;;;;;;15.60;5.00;;;17.40;66.60;;;;;;3956941;29;20316;-54
2023/05/24 06:01:24;;;;;;;6.75;3.28;;;17.40;66.40;;;;;;3963700;29;20058;-52
2023/05/24 06:04:06;;;;;;;14.65;3.85;;;17.40;66.90;;;;;;3971960;29;20478;-54
2023/05/24 06:06:48;;;;;;;16.33;4.38;;;17.40;66.20;;;;;;3960773;29;20062;-54
2023/05/24 06:09:29;;;;;;;20.67;4.15;;;17.40;66.90;;;;;;3971833;29;20119;-55
2023/05/24 06:12:09;;;;;;;18.17;4.07;;;17.40;66.80;;;;;;3971902;29;20057;-53
2023/05/24 06:14:51;;;;;;;11.52;3.95;;;17.30;66.20;;;;;;3957340;29;20054;-55
2023/05/24 06:17:33;;;;;;;16.45;4.90;;;17.30;66.70;;;;;;3957447;29;20139;-52
2023/05/24 06:20:15;;;;;;;12.32;3.85;;;17.30;66.50;;;;;;3956278;29;20062;-55
2023/05/24 06:22:56;;;;;;;13.93;4.45;;;17.30;65.80;;;;;;3956499;29;20410;-55
2023/05/24 06:25:39;;;;;;;15.32;3.78;;;17.30;66.80;;;;;;3956771;29;20548;-57
2023/05/24 06:28:20;;;;;;;12.27;4.05;;;17.30;66.70;;;;;;3956985;29;20058;-58
2023/05/24 06:31:01;;;;;;;14.55;3.45;;;17.30;66.60;;;;;;3967319;29;20524;-58
2023/05/24 06:33:41;;;;;;;16.50;4.45;;;17.30;65.90;;;;;;3971263;29;20521;-55
2023/05/24 06:36:40;;;;;;;13.30;3.42;;;17.40;65.90;;;;;;3956500;29;20082;-58
2023/05/24 06:39:21;;;;;;;13.65;4.13;;;17.40;65.70;;;;;;3956097;29;20189;-58
2023/05/24 06:42:02;;;;;;;11.60;3.50;;;17.40;65.10;;;;;;3956392;29;20533;-58
2023/05/24 06:44:49;;;;;;;11.93;3.33;;;17.50;65.60;;;;;;3956370;29;20062;-58
2023/05/24 06:47:30;;;;;;;11.13;2.92;;;17.50;63.60;;;;;;3955574;29;20059;-55
2023/05/24 06:50:11;;;;;;;10.63;3.03;;;17.50;63.70;;;;;;3956248;29;20062;-56
2023/05/24 06:52:54;;;;;;;14.20;3.53;;;17.40;63.80;;;;;;3956606;29;20423;-58
2023/05/24 06:55:38;;;;;;;12.65;3.20;;;17.40;64.80;;;;;;3955857;29;20074;-52
2023/05/24 06:58:19;;;;;;;10.68;3.38;;;17.40;64.90;;;;;;3965463;29;20544;-52
2023/05/24 07:01:01;;;;;;;8.48;2.92;;;17.40;63.60;;;;;;3971087;29;20082;-52
2023/05/24 07:03:42;;;;;;;8.52;3.03;;;17.40;63.70;;;;;;3971363;29;20143;-55
2023/05/24 07:06:23;;;;;;;10.23;3.05;;;17.40;63.30;;;;;;3970035;29;20838;-55
2023/05/24 07:09:06;;;;;;;12.27;3.95;;;17.40;62.70;;;;;;3971188;29;20054;-51
2023/05/24 07:11:47;;;;;;;14.23;4.22;;;17.40;63.40;;;;;;3970777;29;20522;-52
2023/05/24 07:14:28;;;;;;;12.38;3.58;;;17.40;62.20;;;;;;3970498;29;20065;-50
2023/05/24 07:17:09;;;;;;;11.20;3.30;;;17.40;61.40;;;;;;3970019;29;20057;-55
2023/05/24 07:19:51;;;;;;;11.38;4.00;;;17.50;61.80;;;;;;3968732;29;20173;-58
2023/05/24 07:22:32;;;;;;;12.38;2.92;;;17.50;62.40;;;;;;3984333;29;20137;-57
2023/05/24 07:25:15;;;;;;;13.75;4.10;;;17.50;61.10;;;;;;3969772;29;20455;-58
2023/05/24 07:27:56;;;;;;;7.07;3.42;;;17.50;61.50;;;;;;3974851;29;20514;-58
2023/05/24 07:30:38;;;;;;;14.82;3.78;;;17.50;61.60;;;;;;3978771;29;20419;-58
2023/05/24 07:33:19;;;;;;;8.57;3.22;;;17.40;61.40;;;;;;3970294;29;20097;-57
2023/05/24 07:35:59;;;;;;;13.32;3.90;;;17.50;61.50;;;;;;3965631;29;20097;-55
2023/05/24 07:38:40;;;;;;;12.70;4.30;;;17.50;61.90;;;;;;3968809;29;20197;-52
2023/05/24 07:41:27;;;;;;;11.30;3.70;;;17.40;61.90;;;;;;3970114;29;20637;-58
2023/05/24 07:44:08;;;;;;;10.73;4.18;;;17.40;61.70;;;;;;3969048;29;20061;-58
2023/05/24 07:46:49;;;;;;;15.23;3.88;;;17.40;62.30;;;;;;3970203;29;20083;-58
2023/05/24 07:49:30;;;;;;;11.30;3.58;;;17.40;62.40;;;;;;3963526;29;20086;-57
2023/05/24 07:52:12;;;;;;;11.63;3.53;;;17.40;62.60;;;;;;3960360;29;20587;-58
2023/05/24 07:54:53;;;;;;;9.43;3.50;;;17.40;62.70;;;;;;3975274;29;20079;-57
2023/05/24 07:57:35;;;;;;;11.30;3.10;;;17.40;61.90;;;;;;3974703;29;20645;-58
2023/05/24 08:00:18;;;;;;;10.90;3.80;;;17.40;62.00;;;;;;3974934;29;20326;-57
2023/05/24 08:02:59;;;;;;;11.77;3.45;;;17.40;62.10;;;;;;3970476;29;20057;-57
2023/05/24 08:05:40;;;;;;;9.63;3.10;;;17.40;62.80;;;;;;3975706;29;20179;-52
2023/05/24 08:08:21;;;;;;;14.32;3.47;;;17.40;61.90;;;;;;3968612;29;20251;-54
2023/05/24 08:11:06;;;;;;;7.78;3.10;;;17.40;61.90;;;;;;3949484;29;20058;-56
2023/05/24 08:13:49;;;;;;;6.80;2.60;;;17.40;61.40;;;;;;3965174;29;20058;-54
2023/05/24 08:16:31;;;;;;;8.98;2.72;;;17.40;62.00;;;;;;3975432;29;20068;-53
2023/05/24 08:19:12;;;;;;;;;;;17.50;61.80;;;;;;3960580;29;20058;-55
2023/05/24 08:21:55;;;;;;;9.60;3.50;;;17.50;61.30;;;;;;3972917;29;19932;-53
2023/05/24 08:24:36;;;;;;;9.07;3.10;;;17.60;62.10;;;;;;3975647;29;20056;-55
2023/05/24 08:27:17;;;;;;;10.82;3.05;;;17.60;61.00;;;;;;3980065;29;20592;-55
2023/05/24 08:30:00;;;;;;;;;;;17.60;60.50;;;;;;3984439;29;20053;-55
2023/05/24 08:32:44;;;;;;;9.80;2.85;;;17.60;60.10;;;;;;3975378;29;19936;-55
2023/05/24 08:35:25;;;;;;;11.23;3.40;;;17.70;60.60;;;;;;3975081;29;20085;-56
2023/05/24 08:38:06;;;;;;;9.93;3.00;;;17.70;60.00;;;;;;3977333;29;20447;-54
2023/05/24 08:40:48;;;;;;;8.18;2.80;;;17.70;59.80;;;;;;3960434;29;20062;-52
2023/05/24 08:43:29;;;;;;;10.23;2.92;;;17.70;59.60;;;;;;3960224;29;20062;-57
2023/05/24 08:46:15;;;;;;;7.97;2.63;;;17.70;59.90;;;;;;3959267;29;20058;-57
2023/05/24 08:48:58;;;;;;;10.25;3.40;;;17.80;59.60;;;;;;3959929;29;20063;-57
2023/05/24 08:51:40;;;;;;;8.50;3.15;;;17.80;59.60;;;;;;3948949;29;20066;-57
2023/05/24 08:54:22;;;;;;;10.10;3.47;;;17.80;59.40;;;;;;3960829;29;20062;-58
2023/05/24 08:57:04;;;;;;;7.75;3.38;;;17.80;59.20;;;;;;3977920;29;20105;-57
2023/05/24 08:59:45;;;;;;;9.05;3.28;;;17.80;59.90;;;;;;3974651;29;20056;-56
2023/05/24 09:02:27;;;;;;;9.03;3.57;;;17.80;60.00;;;;;;3972561;29;20074;-55
2023/05/24 09:05:10;;;;;;;9.20;3.22;;;17.80;60.30;;;;;;3972211;29;20316;-57
2023/05/24 09:07:52;;;;;;;8.65;3.42;;;17.80;60.10;;;;;;3944640;29;65546;-56
2023/05/24 09:10:33;;;;;;;11.63;3.90;;;17.70;59.40;;;;;;3955519;29;20065;-56
2023/05/24 09:13:33;;;;;;;7.28;2.28;;;17.70;59.80;;;;;;3933284;29;20058;-55
2023/05/24 09:16:15;;;;;;;5.40;2.25;;;17.80;59.50;;;;;;3965605;29;20057;-56
2023/05/24 09:18:58;;;;;;;8.80;2.80;;;17.80;59.20;;;;;;3972403;29;20049;-56
2023/05/24 09:21:40;;;;;;;9.23;3.33;;;17.80;57.80;;;;;;3962838;29;20066;-56
2023/05/24 09:24:23;;;;;;;10.73;3.05;;;17.80;58.10;;;;;;3957217;29;20066;-56
2023/05/24 09:27:06;;;;;;;10.52;3.15;;;17.90;60.30;;;;;;3942744;30;20063;-56
2023/05/24 09:29:47;;;;;;;13.20;3.80;;;17.90;60.50;;;;;;3949063;29;20058;-55
2023/05/24 09:32:31;;;;;;;8.38;3.22;;;17.90;60.80;;;;;;3957371;29;20062;-56
2023/05/24 09:35:13;;;;;;;10.68;3.10;;;17.90;61.10;;;;;;3943160;29;20059;-55
2023/05/24 09:37:56;;;;;;;7.63;2.83;;;18.00;60.80;;;;;;3957166;29;20408;-57
2023/05/24 09:40:38;;;;;;;9.45;3.85;;;17.90;60.80;;;;;;3956201;29;20066;-50
2023/05/24 09:43:19;;;;;;;14.18;3.40;;;18.00;60.70;;;;;;3955822;29;20054;-54
2023/05/24 09:46:03;;;;;;;7.03;2.95;;;18.00;61.10;;;;;;3942690;29;20178;-53
2023/05/24 09:48:55;;;;;;;9.70;3.60;;;17.90;61.00;;;;;;3956864;29;20516;-52
2023/05/24 09:51:38;;;;;;;11.60;4.20;;;17.90;61.00;;;;;;3953841;29;20062;-54
2023/05/24 09:54:20;;;;;;;8.90;3.03;;;18.00;61.60;;;;;;3972060;29;20054;-52
2023/05/24 09:57:03;;;;;;;7.28;2.95;;;18.00;61.40;;;;;;3960542;29;20151;-55
2023/05/24 09:59:45;;;;;;;11.48;3.42;;;17.90;61.50;;;;;;3972147;29;20061;-54
2023/05/24 10:02:26;;;;;;;7.85;3.20;;;18.00;61.80;;;;;;3971789;29;20138;-55
2023/05/24 10:05:11;;;;;;;10.30;3.58;;;18.00;62.60;;;;;;3960474;29;20134;-54
2023/05/24 10:07:57;;;;;;;13.35;3.45;;;18.00;62.10;;;;;;3970847;29;20061;-53
2023/05/24 10:10:38;;;;;;;8.82;3.17;;;18.00;62.00;;;;;;3971635;29;20058;-54
2023/05/24 10:13:21;;;;;;;10.18;3.13;;;18.00;61.90;;;;;;3969346;29;20609;-54
2023/05/24 10:16:01;;;;;;;9.63;3.40;;;18.00;62.00;;;;;;3971538;29;20134;-54
2023/05/24 10:18:42;;;;;;;8.65;3.03;;;17.90;62.30;;;;;;3971502;29;20107;-56
2023/05/24 10:21:24;;;;;;;8.82;3.33;;;18.00;62.10;;;;;;3971590;29;20571;-52
2023/05/24 10:24:11;;;;;;;8.43;2.45;;;18.00;61.40;;;;;;3971494;29;20050;-56
2023/05/24 10:26:54;;;;;;;8.65;3.25;;;18.00;60.90;;;;;;3969185;29;20147;-55
2023/05/24 10:29:52;;;;;;;6.10;2.38;;;17.90;60.50;;;;;;3979166;29;20050;-51
2023/05/24 10:32:36;;;;;;;5.53;2.58;;;18.00;60.10;;;;;;3974842;29;20387;-55
2023/05/24 10:35:19;;;;;;;7.40;2.95;;;18.00;61.00;;;;;;3969965;29;20069;-53
2023/05/24 10:37:59;;;;;;;11.18;2.83;;;18.00;60.40;;;;;;3971179;29;20534;-52
2023/05/24 10:40:43;;;;;;;6.35;2.75;;;18.00;60.60;;;;;;3971245;29;20127;-53
2023/05/24 10:43:24;;;;;;;12.82;3.42;;;18.10;61.00;;;;;;3971312;29;20062;-52
2023/05/24 10:46:08;;;;;;;6.85;2.70;;;18.10;61.60;;;;;;3970254;29;20065;-55
2023/05/24 10:49:04;;;;;;;11.88;3.47;;;18.10;61.90;;;;;;3960063;29;20076;-48
2023/05/24 10:51:45;;;;;;;13.48;3.58;;;18.10;61.50;;;;;;3970560;29;20062;-49
2023/05/24 10:54:27;;;;;;;7.10;3.53;;;18.10;62.10;;;;;;3960216;29;20191;-49
2023/05/24 10:57:09;;;;;;;8.20;3.00;;;18.10;62.00;;;;;;3970299;29;20107;-52
2023/05/24 10:59:51;;;;;;;11.00;2.47;;;18.10;61.90;;;;;;3982260;29;20118;-49
2023/05/24 11:02:35;;;;;;;9.55;3.28;;;18.10;61.60;;;;;;3984929;29;20183;-49
2023/05/24 11:05:17;;;;;;;7.50;3.35;;;18.10;61.20;;;;;;3971063;29;20073;-49
2023/05/24 11:08:00;;;;;;;6.90;3.22;;;18.10;61.10;;;;;;3970818;29;20053;-51
2023/05/24 11:10:41;;;;;;;8.13;2.47;;;18.10;61.50;;;;;;3970878;29;20058;-52
2023/05/24 11:13:27;;;;;;;7.15;2.75;;;18.10;61.20;;;;;;3959724;29;20120;-53
2023/05/24 11:16:09;;;;;;;11.05;3.40;;;18.10;61.70;;;;;;3970416;29;20061;-53
2023/05/24 11:18:55;;;;;;;12.65;3.30;;;18.10;61.70;;;;;;3970882;29;20143;-53
2023/05/24 11:21:37;;;;;;;9.88;2.97;;;18.10;61.60;;;;;;3975900;29;20049;-52
2023/05/24 11:24:18;;;;;;;;;;;18.10;62.10;;;;;;3956142;29;20540;-57
2023/05/24 11:27:02;;;;;;;11.55;4.00;;;18.10;62.50;;;;;;3960784;29;19932;-53
2023/05/24 11:29:46;;;;;;;11.50;3.13;;;18.10;62.40;;;;;;3970807;29;20058;-54
2023/05/24 11:32:27;;;;;;;9.80;2.95;;;18.10;62.40;;;;;;3970973;29;20143;-52
2023/05/24 11:35:10;;;;;;;13.52;3.78;;;18.10;62.60;;;;;;3970924;29;20195;-50
2023/05/24 11:37:51;;;;;;;10.50;3.05;;;18.10;62.90;;;;;;3970680;29;20057;-50
2023/05/24 11:40:32;;;;;;;10.60;3.75;;;18.10;62.50;;;;;;3944992;29;20204;-50
2023/05/24 11:43:14;;;;;;;;;;;18.10;62.40;;;;;;3945153;30;20055;-49
2023/05/24 11:46:01;;;;;;;7.57;2.42;;;18.20;62.60;;;;;;3958531;29;19940;-51
2023/05/24 11:48:42;;;;;;;8.18;2.92;;;18.10;61.80;;;;;;3962506;29;20054;-50
2023/05/24 11:51:27;;;;;;;7.32;3.33;;;18.20;61.20;;;;;;3973410;29;20063;-48
2023/05/24 11:54:08;;;;;;;7.28;2.88;;;18.20;61.30;;;;;;3970549;29;20062;-50
2023/05/24 11:56:50;;;;;;;11.65;3.28;;;18.20;61.90;;;;;;3959459;29;20054;-49
2023/05/24 11:59:32;;;;;;;8.48;3.78;;;18.10;61.50;;;;;;3969949;29;20054;-49
2023/05/24 12:02:14;;;;;;;9.60;3.25;;;18.10;61.30;;;;;;3955753;29;20807;-49
2023/05/24 12:05:05;;;;;;;14.30;3.67;;;18.20;61.30;;;;;;3955819;29;20062;-53
2023/05/24 12:07:47;;;;;;;11.85;2.75;;;18.20;61.80;;;;;;3955339;29;20066;-50
2023/05/24 12:10:28;;;;;;;;;;;18.20;61.40;;;;;;3956160;29;20070;-51
2023/05/24 12:13:21;;;;;;;10.05;2.92;;;18.20;61.70;;;;;;3956793;29;20018;-53
2023/05/24 12:16:03;;;;;;;12.88;2.70;;;18.20;62.50;;;;;;3970330;29;20046;-49
2023/05/24 12:18:45;;;;;;;6.32;2.55;;;18.20;62.60;;;;;;3959357;29;20054;-49
2023/05/24 12:21:42;;;;;;;11.20;3.50;;;18.20;61.60;;;;;;3969891;29;20195;-51
2023/05/24 12:24:25;;;;;;;8.10;3.72;;;18.30;61.00;;;;;;3970269;29;20599;-53
2023/05/24 12:27:07;;;;;;;11.70;2.92;;;18.20;60.90;;;;;;3958922;29;20096;-50
2023/05/24 12:29:49;;;;;;;14.27;3.22;;;18.30;60.80;;;;;;3970086;29;20456;-49
2023/05/24 12:32:31;;;;;;;7.15;2.78;;;18.20;60.20;;;;;;3970798;29;20110;-50
2023/05/24 12:35:14;;;;;;;9.73;3.35;;;18.20;60.00;;;;;;3972185;29;20107;-54
2023/05/24 12:37:59;;;;;;;8.18;3.10;;;18.20;60.50;;;;;;3973224;29;20131;-53
2023/05/24 12:40:43;;;;;;;11.18;3.25;;;18.20;60.30;;;;;;3958414;29;20066;-52
2023/05/24 12:43:25;;;;;;;10.50;3.13;;;18.20;60.40;;;;;;3958137;29;20066;-49
2023/05/24 12:46:07;;;;;;;7.85;2.70;;;18.20;60.10;;;;;;3971338;29;20053;-51
2023/05/24 12:48:49;;;;;;;7.80;2.75;;;18.20;60.30;;;;;;3958432;29;20400;-52
2023/05/24 12:51:32;;;;;;;12.35;3.03;;;18.20;60.50;;;;;;3967923;29;20391;-54
2023/05/24 12:54:13;;;;;;;7.90;2.90;;;18.10;60.50;;;;;;3958416;29;20066;-53
2023/05/24 12:56:56;;;;;;;11.48;3.38;;;18.10;60.50;;;;;;3958643;29;20058;-53
2023/05/24 12:59:37;;;;;;;8.75;3.35;;;18.20;61.10;;;;;;3957585;29;20182;-53
2023/05/24 13:02:19;;;;;;;11.57;3.22;;;18.10;61.00;;;;;;3972735;29;20134;-53
2023/05/24 13:05:00;;;;;;;11.70;3.85;;;18.20;61.00;;;;;;3958241;29;20050;-52
2023/05/24 13:07:43;;;;;;;9.55;3.25;;;18.20;60.80;;;;;;3957957;29;20066;-53
2023/05/24 13:10:26;;;;;;;13.30;3.63;;;18.10;60.70;;;;;;3960704;29;20484;-50
2023/05/24 13:13:07;;;;;;;8.75;3.20;;;18.20;60.50;;;;;;3972563;29;20400;-51
2023/05/24 13:15:48;;;;;;;8.80;2.88;;;18.20;60.90;;;;;;3984886;29;20053;-52
2023/05/24 13:18:32;;;;;;;10.38;3.15;;;18.10;60.80;;;;;;3972895;29;20502;-53
2023/05/24 13:21:13;;;;;;;11.88;3.42;;;18.20;60.80;;;;;;3967846;29;20572;-54
2023/05/24 13:23:56;;;;;;;10.20;3.28;;;18.20;61.00;;;;;;3946542;29;20107;-54
2023/05/24 13:26:37;;;;;;;8.77;3.00;;;18.10;60.60;;;;;;3957698;29;20058;-53
2023/05/24 13:29:18;;;;;;;10.55;3.40;;;18.20;60.80;;;;;;3957764;29;20066;-54
2023/05/24 13:32:14;;;;;;;6.97;2.67;;;18.10;60.40;;;;;;3964769;29;20066;-49
2023/05/24 13:34:57;;;;;;;11.48;3.65;;;18.10;61.00;;;;;;3972457;29;20510;-52
2023/05/24 13:37:39;;;;;;;6.97;2.75;;;18.20;60.00;;;;;;3972316;29;20435;-51
2023/05/24 13:40:23;;;;;;;9.80;2.75;;;18.10;60.20;;;;;;3972918;29;20896;-53
2023/05/24 13:43:05;;;;;;;8.05;2.72;;;18.20;59.90;;;;;;3972345;29;20065;-49
2023/05/24 13:45:47;;;;;;;7.57;2.85;;;18.20;60.50;;;;;;3971817;29;20165;-49
2023/05/24 13:48:28;;;;;;;7.20;2.70;;;18.20;60.20;;;;;;3961195;29;20135;-53
2023/05/24 13:51:10;;;;;;;6.43;3.00;;;18.10;60.00;;;;;;3972153;29;20058;-52
2023/05/24 13:53:54;;;;;;;7.22;3.03;;;18.20;60.40;;;;;;3971382;29;20521;-54
2023/05/24 13:56:38;;;;;;;6.63;2.30;;;18.20;60.20;;;;;;3972223;29;20066;-51
2023/05/24 13:59:20;;;;;;;6.20;2.13;;;18.10;59.80;;;;;;3960360;29;20103;-54
2023/05/24 14:02:01;;;;;;;6.55;2.92;;;18.20;60.20;;;;;;3972255;29;20062;-53